createdAt,value
2019-05-15T00:00:48.138Z,1024.15
2019-05-15T00:01:48.763Z,1024.11
2019-05-15T00:02:48.161Z,1024.14
2019-05-15T00:03:46.354Z,1024.16
2019-05-15T00:04:46.320Z,1024.13
2019-05-15T00:05:46.309Z,1024.11
2019-05-15T00:06:48.535Z,1024.08
2019-05-15T00:07:48.415Z,1024.10
2019-05-15T00:08:48.045Z,1024.06
2019-05-15T00:09:46.224Z,1024.07
2019-05-15T00:10:47.818Z,1024.09
2019-05-15T00:11:48.171Z,1024.07
2019-05-15T00:12:48.463Z,1024.13
2019-05-15T00:13:48.218Z,1024.12
2019-05-15T00:14:48.310Z,1024.09
2019-05-15T00:15:48.009Z,1024.09
2019-05-15T00:16:48.165Z,1024.07
2019-05-15T00:17:48.327Z,1024.04
2019-05-15T00:18:48.079Z,1024.08
2019-05-15T00:19:45.998Z,1024.07
2019-05-15T00:20:49.371Z,1024.04
2019-05-15T00:21:45.956Z,1024.06
2019-05-15T00:22:48.248Z,1024.08
2019-05-15T00:23:45.916Z,1024.09
2019-05-15T00:24:45.889Z,1024.09
2019-05-15T00:25:45.868Z,1024.05
2019-05-15T00:26:47.931Z,1024.06
2019-05-15T00:27:45.827Z,1024.03
2019-05-15T00:28:47.879Z,1023.99
2019-05-15T00:29:45.786Z,1024.04
2019-05-15T00:30:47.995Z,1024.03
2019-05-15T00:31:48.343Z,1024.00
2019-05-15T00:32:45.716Z,1024.00
2019-05-15T00:33:47.859Z,1024.01
2019-05-15T00:34:45.673Z,1023.99
2019-05-15T00:35:45.653Z,1023.97
2019-05-15T00:36:45.837Z,1023.95
2019-05-15T00:37:45.608Z,1023.96
2019-05-15T00:38:45.589Z,1024.00
2019-05-15T00:39:45.789Z,1024.00
2019-05-15T00:40:45.549Z,1023.97
2019-05-15T00:41:53.323Z,1023.98
2019-05-15T00:42:45.503Z,1023.94
2019-05-15T00:43:45.489Z,1023.97
2019-05-15T00:44:45.460Z,1023.94
2019-05-15T00:45:45.765Z,1023.95
2019-05-15T00:46:45.414Z,1023.98
2019-05-15T00:47:45.396Z,1023.97
2019-05-15T00:48:45.378Z,1023.97
2019-05-15T00:49:45.354Z,1023.90
2019-05-15T00:50:45.329Z,1023.91
2019-05-15T00:51:45.311Z,1023.88
2019-05-15T00:52:45.285Z,1023.93
2019-05-15T00:53:45.267Z,1023.89
2019-05-15T00:54:45.241Z,1023.92
2019-05-15T00:55:45.221Z,1023.87
2019-05-15T00:56:45.200Z,1023.91
2019-05-15T00:57:45.184Z,1023.92
2019-05-15T00:58:45.158Z,1023.92
2019-05-15T00:59:45.131Z,1023.88
2019-05-15T01:00:45.115Z,1023.92
2019-05-15T01:01:45.101Z,1023.96
2019-05-15T01:02:45.068Z,1023.90
2019-05-15T01:03:45.051Z,1023.90
2019-05-15T01:04:45.027Z,1023.89
2019-05-15T01:05:45.006Z,1023.87
2019-05-15T01:06:44.980Z,1023.88
2019-05-15T01:07:44.960Z,1023.84
2019-05-15T01:08:44.939Z,1023.88
2019-05-15T01:09:44.914Z,1023.86
2019-05-15T01:10:44.893Z,1023.85
2019-05-15T01:11:44.874Z,1023.84
2019-05-15T01:12:44.854Z,1023.83
2019-05-15T01:13:44.829Z,1023.81
2019-05-15T01:14:44.806Z,1023.81
2019-05-15T01:15:44.789Z,1023.76
2019-05-15T01:16:45.073Z,1023.79
2019-05-15T01:17:44.750Z,1023.78
2019-05-15T01:18:44.723Z,1023.83
2019-05-15T01:19:44.697Z,1023.80
2019-05-15T01:20:44.674Z,1023.81
2019-05-15T01:21:44.654Z,1023.75
2019-05-15T01:22:44.638Z,1023.81
2019-05-15T01:23:44.610Z,1023.78
2019-05-15T01:24:44.594Z,1023.77
2019-05-15T01:25:44.565Z,1023.73
2019-05-15T01:26:44.548Z,1023.77
2019-05-15T01:27:44.525Z,1023.75
2019-05-15T01:28:44.503Z,1023.73
2019-05-15T01:29:45.322Z,1023.70
2019-05-15T01:30:44.465Z,1023.69
2019-05-15T01:31:44.442Z,1023.68
2019-05-15T01:32:44.414Z,1023.67
2019-05-15T01:33:44.391Z,1023.71
2019-05-15T01:34:44.370Z,1023.64
2019-05-15T01:35:44.352Z,1023.70
2019-05-15T01:36:44.330Z,1023.66
2019-05-15T01:37:44.305Z,1023.64
2019-05-15T01:38:44.285Z,1023.65
2019-05-15T01:39:44.264Z,1023.65
2019-05-15T01:40:44.244Z,1023.63
2019-05-15T01:41:44.240Z,1023.66
2019-05-15T01:42:44.196Z,1023.66
2019-05-15T01:43:44.174Z,1023.62
2019-05-15T01:44:44.150Z,1023.62
2019-05-15T01:45:44.134Z,1023.63
2019-05-15T01:46:44.109Z,1023.60
2019-05-15T01:47:44.089Z,1023.59
2019-05-15T01:48:44.064Z,1023.58
2019-05-15T01:49:44.041Z,1023.56
2019-05-15T01:50:44.023Z,1023.57
2019-05-15T01:51:44.002Z,1023.60
2019-05-15T01:52:43.979Z,1023.60
2019-05-15T01:53:43.958Z,1023.59
2019-05-15T01:54:43.933Z,1023.58
2019-05-15T01:55:43.912Z,1023.55
2019-05-15T01:56:43.895Z,1023.54
2019-05-15T01:57:43.866Z,1023.54
2019-05-15T01:58:43.847Z,1023.52
2019-05-15T01:59:54.795Z,1023.49
2019-05-15T02:00:43.802Z,1023.46
2019-05-15T02:01:43.784Z,1023.47
2019-05-15T02:02:43.762Z,1023.47
2019-05-15T02:03:43.736Z,1023.46
2019-05-15T02:04:43.720Z,1023.47
2019-05-15T02:05:43.691Z,1023.46
2019-05-15T02:06:43.675Z,1023.45
2019-05-15T02:07:43.651Z,1023.46
2019-05-15T02:08:43.631Z,1023.42
2019-05-15T02:09:43.606Z,1023.42
2019-05-15T02:10:43.584Z,1023.42
2019-05-15T02:11:43.560Z,1023.39
2019-05-15T02:12:43.541Z,1023.41
2019-05-15T02:13:43.518Z,1023.43
2019-05-15T02:14:43.502Z,1023.37
2019-05-15T02:15:43.476Z,1023.37
2019-05-15T02:16:43.456Z,1023.35
2019-05-15T02:17:43.436Z,1023.31
2019-05-15T02:18:43.409Z,1023.35
2019-05-15T02:19:43.389Z,1023.29
2019-05-15T02:20:43.363Z,1023.30
2019-05-15T02:21:43.346Z,1023.32
2019-05-15T02:22:43.322Z,1023.30
2019-05-15T02:23:43.299Z,1023.30
2019-05-15T02:24:43.278Z,1023.27
2019-05-15T02:25:43.257Z,1023.27
2019-05-15T02:26:43.234Z,1023.24
2019-05-15T02:27:43.213Z,1023.25
2019-05-15T02:28:43.193Z,1023.26
2019-05-15T02:29:44.583Z,1023.22
2019-05-15T02:30:43.146Z,1023.26
2019-05-15T02:31:43.130Z,1023.22
2019-05-15T02:32:43.108Z,1023.24
2019-05-15T02:33:43.081Z,1023.20
2019-05-15T02:34:43.061Z,1023.19
2019-05-15T02:35:43.036Z,1023.16
2019-05-15T02:36:43.013Z,1023.21
2019-05-15T02:37:42.991Z,1023.18
2019-05-15T02:38:42.970Z,1023.21
2019-05-15T02:39:42.945Z,1023.18
2019-05-15T02:40:42.921Z,1023.17
2019-05-15T02:41:42.899Z,1023.18
2019-05-15T02:42:42.879Z,1023.18
2019-05-15T02:43:42.854Z,1023.22
2019-05-15T02:44:42.833Z,1023.18
2019-05-15T02:45:42.815Z,1023.19
2019-05-15T02:46:42.786Z,1023.21
2019-05-15T02:47:42.769Z,1023.17
2019-05-15T02:48:42.744Z,1023.24
2019-05-15T02:49:42.726Z,1023.23
2019-05-15T02:50:42.704Z,1023.21
2019-05-15T02:51:42.681Z,1023.20
2019-05-15T02:52:45.478Z,1023.19
2019-05-15T02:53:42.632Z,1023.21
2019-05-15T02:54:42.605Z,1023.21
2019-05-15T02:55:42.577Z,1023.18
2019-05-15T02:56:42.564Z,1023.18
2019-05-15T02:57:42.541Z,1023.15
2019-05-15T02:58:42.513Z,1023.12
2019-05-15T02:59:42.495Z,1023.15
2019-05-15T03:00:48.204Z,1023.13
2019-05-15T03:01:42.459Z,1023.12
2019-05-15T03:02:42.427Z,1023.13
2019-05-15T03:03:42.413Z,1023.12
2019-05-15T03:04:42.380Z,1023.08
2019-05-15T03:05:42.366Z,1023.12
2019-05-15T03:06:42.343Z,1023.10
2019-05-15T03:07:42.317Z,1023.11
2019-05-15T03:08:42.305Z,1023.11
2019-05-15T03:09:42.266Z,1023.10
2019-05-15T03:10:42.246Z,1023.09
2019-05-15T03:11:42.220Z,1023.15
2019-05-15T03:12:42.201Z,1023.13
2019-05-15T03:13:42.182Z,1023.08
2019-05-15T03:14:42.151Z,1023.12
2019-05-15T03:15:42.127Z,1023.13
2019-05-15T03:16:42.113Z,1023.14
2019-05-15T03:17:42.092Z,1023.14
2019-05-15T03:18:42.061Z,1023.16
2019-05-15T03:19:42.041Z,1023.15
2019-05-15T03:20:42.031Z,1023.17
2019-05-15T03:21:41.995Z,1023.18
2019-05-15T03:22:41.974Z,1023.14
2019-05-15T03:23:41.950Z,1023.21
2019-05-15T03:24:41.920Z,1023.20
2019-05-15T03:25:41.898Z,1023.16
2019-05-15T03:26:41.876Z,1023.18
2019-05-15T03:27:41.857Z,1023.18
2019-05-15T03:28:41.830Z,1023.18
2019-05-15T03:29:41.812Z,1023.17
2019-05-15T03:31:12.027Z,1023.20
2019-05-15T03:31:59.039Z,1023.19
2019-05-15T03:32:51.754Z,1023.22
2019-05-15T03:33:45.430Z,1023.20
2019-05-15T03:34:47.662Z,1023.20
2019-05-15T03:35:43.733Z,1023.21
2019-05-15T03:36:45.300Z,1023.18
2019-05-15T03:37:41.632Z,1023.16
2019-05-15T03:38:41.601Z,1023.19
2019-05-15T03:39:41.583Z,1023.20
2019-05-15T03:40:41.566Z,1023.15
2019-05-15T03:41:41.541Z,1023.17
2019-05-15T03:42:41.515Z,1023.18
2019-05-15T03:43:41.506Z,1023.18
2019-05-15T03:44:41.466Z,1023.15
2019-05-15T03:45:41.444Z,1023.19
2019-05-15T03:46:41.423Z,1023.20
2019-05-15T03:47:41.404Z,1023.23
2019-05-15T03:48:41.373Z,1023.21
2019-05-15T03:49:41.348Z,1023.23
2019-05-15T03:50:41.331Z,1023.23
2019-05-15T03:51:45.667Z,1023.24
2019-05-15T03:52:41.294Z,1023.24
2019-05-15T03:53:41.264Z,1023.19
2019-05-15T03:54:41.239Z,1023.25
2019-05-15T03:55:41.219Z,1023.17
2019-05-15T03:56:41.193Z,1023.17
2019-05-15T03:57:41.169Z,1023.19
2019-05-15T03:58:41.146Z,1023.16
2019-05-15T03:59:41.129Z,1023.16
2019-05-15T04:00:41.102Z,1023.13
2019-05-15T04:01:43.930Z,1023.11
2019-05-15T04:02:41.062Z,1023.13
2019-05-15T04:03:41.034Z,1023.14
2019-05-15T04:04:41.007Z,1023.13
2019-05-15T04:05:40.991Z,1023.14
2019-05-15T04:06:40.966Z,1023.13
2019-05-15T04:07:40.936Z,1023.10
2019-05-15T04:08:40.915Z,1023.07
2019-05-15T04:09:40.897Z,1023.11
2019-05-15T04:10:40.896Z,1023.08
2019-05-15T04:11:40.847Z,1023.13
2019-05-15T04:12:41.011Z,1023.14
2019-05-15T04:13:40.810Z,1023.13
2019-05-15T04:14:40.779Z,1023.15
2019-05-15T04:15:40.761Z,1023.10
2019-05-15T04:16:40.734Z,1023.15
2019-05-15T04:17:40.875Z,1023.15
2019-05-15T04:18:40.692Z,1023.12
2019-05-15T04:19:40.669Z,1023.13
2019-05-15T04:20:41.080Z,1023.16
2019-05-15T04:21:44.748Z,1023.16
2019-05-15T04:22:40.773Z,1023.13
2019-05-15T04:23:40.579Z,1023.10
2019-05-15T04:24:40.563Z,1023.18
2019-05-15T04:25:40.543Z,1023.17
2019-05-15T04:26:40.519Z,1023.11
2019-05-15T04:27:40.486Z,1023.14
2019-05-15T04:28:41.683Z,1023.14
2019-05-15T04:29:40.436Z,1023.14
2019-05-15T04:30:40.419Z,1023.12
2019-05-15T04:31:54.473Z,1023.08
2019-05-15T04:32:40.646Z,1023.08
2019-05-15T04:33:40.533Z,1023.09
2019-05-15T04:34:40.329Z,1023.08
2019-05-15T04:35:40.662Z,1023.07
2019-05-15T04:36:44.281Z,1023.03
2019-05-15T04:37:41.126Z,1022.99
2019-05-15T04:38:40.250Z,1023.08
2019-05-15T04:39:40.303Z,1023.07
2019-05-15T04:40:40.260Z,1023.04
2019-05-15T04:41:40.172Z,1023.05
2019-05-15T04:42:40.246Z,1023.04
2019-05-15T04:43:44.864Z,1023.10
2019-05-15T04:44:40.100Z,1023.07
2019-05-15T04:45:40.101Z,1023.04
2019-05-15T04:46:40.050Z,1023.11
2019-05-15T04:47:40.322Z,1023.09
2019-05-15T04:48:40.355Z,1023.08
2019-05-15T04:49:39.985Z,1023.08
2019-05-15T04:50:40.448Z,1023.09
2019-05-15T04:51:39.940Z,1023.05
2019-05-15T04:52:43.230Z,1023.06
2019-05-15T04:53:40.115Z,1023.00
2019-05-15T04:54:40.329Z,1023.06
2019-05-15T04:55:40.667Z,1023.05
2019-05-15T04:56:40.259Z,1023.07
2019-05-15T04:57:40.830Z,1023.00
2019-05-15T04:58:39.914Z,1023.04
2019-05-15T04:59:39.758Z,1023.04
2019-05-15T05:00:40.088Z,1023.07
2019-05-15T05:01:40.372Z,1023.10
2019-05-15T05:02:40.654Z,1023.05
2019-05-15T05:03:39.948Z,1023.03
2019-05-15T05:04:39.648Z,1023.09
2019-05-15T05:05:39.629Z,1023.03
2019-05-15T05:06:39.602Z,1023.05
2019-05-15T05:07:39.910Z,1023.07
2019-05-15T05:08:40.103Z,1023.07
2019-05-15T05:09:39.538Z,1023.07
2019-05-15T05:10:39.749Z,1023.09
2019-05-15T05:11:39.493Z,1023.09
2019-05-15T05:12:42.009Z,1023.10
2019-05-15T05:13:39.706Z,1023.13
2019-05-15T05:14:39.427Z,1023.11
2019-05-15T05:15:39.403Z,1023.14
2019-05-15T05:16:39.639Z,1023.11
2019-05-15T05:17:39.563Z,1023.05
2019-05-15T05:18:41.341Z,1023.09
2019-05-15T05:19:40.238Z,1023.09
2019-05-15T05:20:39.291Z,1023.13
2019-05-15T05:21:39.265Z,1023.09
2019-05-15T05:22:39.706Z,1023.11
2019-05-15T05:23:39.224Z,1023.10
2019-05-15T05:24:39.206Z,1023.10
2019-05-15T05:25:39.181Z,1023.11
2019-05-15T05:26:39.157Z,1023.10
2019-05-15T05:27:39.138Z,1023.07
2019-05-15T05:28:39.112Z,1023.05
2019-05-15T05:29:39.091Z,1023.07
2019-05-15T05:30:39.068Z,1023.07
2019-05-15T05:31:39.363Z,1023.07
2019-05-15T05:32:39.371Z,1023.09
2019-05-15T05:33:39.053Z,1023.11
2019-05-15T05:34:39.297Z,1023.10
2019-05-15T05:35:38.960Z,1023.14
2019-05-15T05:36:38.937Z,1023.16
2019-05-15T05:37:39.306Z,1023.14
2019-05-15T05:38:38.989Z,1023.11
2019-05-15T05:39:39.521Z,1023.13
2019-05-15T05:40:38.851Z,1023.10
2019-05-15T05:41:39.278Z,1023.13
2019-05-15T05:42:39.206Z,1023.12
2019-05-15T05:43:38.782Z,1023.11
2019-05-15T05:44:42.521Z,1023.15
2019-05-15T05:45:38.741Z,1023.17
2019-05-15T05:46:39.742Z,1023.15
2019-05-15T05:47:38.701Z,1023.17
2019-05-15T05:48:38.677Z,1023.16
2019-05-15T05:49:38.654Z,1023.22
2019-05-15T05:50:38.764Z,1023.20
2019-05-15T05:51:38.833Z,1023.20
2019-05-15T05:52:39.226Z,1023.17
2019-05-15T05:53:38.634Z,1023.16
2019-05-15T05:54:38.541Z,1023.18
2019-05-15T05:55:38.587Z,1023.17
2019-05-15T05:56:38.498Z,1023.17
2019-05-15T05:57:38.598Z,1023.16
2019-05-15T05:58:39.110Z,1023.13
2019-05-15T05:59:38.787Z,1023.12
2019-05-15T06:00:39.339Z,1023.15
2019-05-15T06:01:43.676Z,1023.16
2019-05-15T06:02:46.921Z,1023.15
2019-05-15T06:03:38.797Z,1023.16
2019-05-15T06:04:38.509Z,1023.19
2019-05-15T06:05:38.924Z,1023.07
2019-05-15T06:06:38.586Z,1023.06
2019-05-15T06:07:38.840Z,1023.12
2019-05-15T06:08:38.971Z,1023.12
2019-05-15T06:09:38.210Z,1023.11
2019-05-15T06:10:38.733Z,1023.13
2019-05-15T06:11:38.207Z,1023.11
2019-05-15T06:12:38.853Z,1023.11
2019-05-15T06:13:38.414Z,1023.17
2019-05-15T06:14:38.194Z,1023.12
2019-05-15T06:15:38.273Z,1023.20
2019-05-15T06:16:38.716Z,1023.14
2019-05-15T06:17:39.218Z,1023.18
2019-05-15T06:18:38.885Z,1023.17
2019-05-15T06:19:38.581Z,1023.11
2019-05-15T06:20:39.526Z,1023.10
2019-05-15T06:21:46.651Z,1023.19
2019-05-15T06:22:38.775Z,1023.11
2019-05-15T06:23:44.013Z,1023.17
2019-05-15T06:24:38.045Z,1023.19
2019-05-15T06:25:39.095Z,1023.18
2019-05-15T06:26:38.652Z,1023.18
2019-05-15T06:27:39.086Z,1023.23
2019-05-15T06:28:39.455Z,1023.24
2019-05-15T06:29:38.032Z,1023.21
2019-05-15T06:30:38.593Z,1023.23
2019-05-15T06:31:38.809Z,1023.18
2019-05-15T06:32:39.760Z,1023.18
2019-05-15T06:33:38.370Z,1023.21
2019-05-15T06:34:38.099Z,1023.20
2019-05-15T06:35:39.448Z,1023.17
2019-05-15T06:36:39.270Z,1023.22
2019-05-15T06:37:39.498Z,1023.19
2019-05-15T06:38:39.419Z,1023.18
2019-05-15T06:39:39.085Z,1023.11
2019-05-15T06:40:39.498Z,1023.14
2019-05-15T06:41:39.045Z,1023.08
2019-05-15T06:42:39.393Z,1023.14
2019-05-15T06:43:38.968Z,1023.18
2019-05-15T06:44:38.833Z,1023.20
2019-05-15T06:45:37.999Z,1023.29
2019-05-15T06:46:39.320Z,1023.34
2019-05-15T06:47:39.530Z,1023.32
2019-05-15T06:48:37.998Z,1023.32
2019-05-15T06:49:37.846Z,1023.36
2019-05-15T06:50:38.282Z,1023.33
2019-05-15T06:51:37.886Z,1023.35
2019-05-15T06:52:38.018Z,1023.40
2019-05-15T06:53:38.485Z,1023.46
2019-05-15T06:54:37.800Z,1023.52
2019-05-15T06:55:38.903Z,1023.54
2019-05-15T06:56:38.883Z,1023.48
2019-05-15T06:57:39.561Z,1023.50
2019-05-15T06:58:38.591Z,1023.52
2019-05-15T06:59:38.940Z,1023.62
2019-05-15T07:00:39.113Z,1023.56
2019-05-15T07:01:38.561Z,1023.58
2019-05-15T07:02:38.215Z,1023.57
2019-05-15T07:03:39.286Z,1023.49
2019-05-15T07:04:38.422Z,1023.42
2019-05-15T07:05:38.596Z,1023.44
2019-05-15T07:06:38.116Z,1023.43
2019-05-15T07:07:38.532Z,1023.37
2019-05-15T07:08:38.255Z,1023.34
2019-05-15T07:09:38.066Z,1023.35
2019-05-15T07:10:37.749Z,1023.35
2019-05-15T07:11:38.760Z,1023.37
2019-05-15T07:12:39.092Z,1023.39
2019-05-15T07:13:38.284Z,1023.39
2019-05-15T07:14:37.996Z,1023.35
2019-05-15T07:15:38.476Z,1023.45
2019-05-15T07:16:38.963Z,1023.55
2019-05-15T07:17:38.935Z,1023.57
2019-05-15T07:18:38.946Z,1023.67
2019-05-15T07:19:39.246Z,1023.67
2019-05-15T07:20:39.128Z,1023.68
2019-05-15T07:21:38.799Z,1023.78
2019-05-15T07:22:39.241Z,1023.90
2019-05-15T07:23:38.686Z,1023.87
2019-05-15T07:24:38.351Z,1023.77
2019-05-15T07:25:39.063Z,1023.74
2019-05-15T07:26:38.964Z,1023.59
2019-05-15T07:27:38.735Z,1023.46
2019-05-15T07:28:37.985Z,1023.14
2019-05-15T07:29:38.590Z,1023.18
2019-05-15T07:30:40.822Z,1023.09
2019-05-15T07:31:38.406Z,1023.02
2019-05-15T07:32:39.384Z,1022.94
2019-05-15T07:33:42.544Z,1022.96
2019-05-15T07:34:37.883Z,1023.02
2019-05-15T07:35:38.439Z,1023.07
2019-05-15T07:36:38.788Z,1023.10
2019-05-15T07:37:38.713Z,1023.16
2019-05-15T07:38:38.933Z,1023.33
2019-05-15T07:39:38.168Z,1023.58
2019-05-15T07:40:39.075Z,1023.65
2019-05-15T07:41:36.394Z,1023.66
2019-05-15T07:42:38.602Z,1023.76
2019-05-15T07:43:38.426Z,1024.30
2019-05-15T07:44:38.604Z,1024.35
2019-05-15T07:45:42.554Z,1024.12
2019-05-15T07:46:38.262Z,1023.93
2019-05-15T07:47:38.625Z,1023.90
2019-05-15T07:48:38.439Z,1023.96
2019-05-15T07:49:38.634Z,1023.94
2019-05-15T07:50:38.708Z,1024.14
2019-05-15T07:51:38.190Z,1024.12
2019-05-15T07:52:36.198Z,1023.92
2019-05-15T07:53:38.432Z,1023.71
2019-05-15T07:54:38.169Z,1023.82
2019-05-15T07:55:39.088Z,1023.93
2019-05-15T07:56:38.086Z,1024.30
2019-05-15T07:57:38.860Z,1024.12
2019-05-15T07:58:38.425Z,1024.28
2019-05-15T07:59:38.509Z,1027.56
2019-05-15T08:00:36.075Z,1026.56
2019-05-15T08:01:38.427Z,1028.78
2019-05-15T08:02:37.989Z,1025.52
2019-05-15T08:03:38.131Z,1026.79
2019-05-15T08:04:37.904Z,1030.83
2019-05-15T08:05:38.203Z,1028.09
2019-05-15T08:06:38.618Z,1026.16
2019-05-15T08:07:38.610Z,1024.35
2019-05-15T08:08:35.957Z,1024.13
2019-05-15T08:09:35.942Z,1024.44
2019-05-15T08:10:35.932Z,1024.65
2019-05-15T08:11:35.912Z,1024.05
2019-05-15T08:12:35.896Z,1023.95
2019-05-15T08:13:38.184Z,1023.99
2019-05-15T08:14:38.665Z,1023.56
2019-05-15T08:15:37.977Z,1023.31
2019-05-15T08:16:35.856Z,1023.53
2019-05-15T08:17:35.838Z,1023.55
2019-05-15T08:18:35.822Z,1023.29
2019-05-15T08:19:38.209Z,1023.38
2019-05-15T08:20:38.338Z,1023.85
2019-05-15T08:21:38.305Z,1023.80
2019-05-15T08:22:38.052Z,1023.86
2019-05-15T08:23:35.758Z,1024.28
2019-05-15T08:24:35.747Z,1024.03
2019-05-15T08:25:35.727Z,1024.54
2019-05-15T08:26:37.807Z,1024.46
2019-05-15T08:27:38.088Z,1023.73
2019-05-15T08:28:38.073Z,1023.35
2019-05-15T08:29:38.186Z,1023.22
2019-05-15T08:30:35.669Z,1023.26
2019-05-15T08:31:35.661Z,1023.24
2019-05-15T08:32:35.657Z,1023.25
2019-05-15T08:33:35.636Z,1023.10
2019-05-15T08:34:35.620Z,1023.07
2019-05-15T08:35:35.611Z,1023.12
2019-05-15T08:36:35.600Z,1022.99
2019-05-15T08:37:35.689Z,1023.00
2019-05-15T08:38:38.132Z,1022.97
2019-05-15T08:39:38.024Z,1023.05
2019-05-15T08:40:40.749Z,1023.09
2019-05-15T08:41:35.536Z,1023.07
2019-05-15T08:42:35.527Z,1023.07
2019-05-15T08:43:35.514Z,1023.04
2019-05-15T08:44:35.498Z,1023.00
2019-05-15T08:45:35.500Z,1022.95
2019-05-15T08:46:35.483Z,1022.95
2019-05-15T08:47:35.465Z,1022.92
2019-05-15T08:48:35.451Z,1022.93
2019-05-15T08:49:40.650Z,1022.94
2019-05-15T08:50:35.425Z,1022.98
2019-05-15T08:51:37.976Z,1022.93
2019-05-15T08:52:35.400Z,1022.81
2019-05-15T08:53:37.818Z,1022.75
2019-05-15T08:54:38.161Z,1022.83
2019-05-15T08:55:35.362Z,1022.86
2019-05-15T08:56:35.351Z,1022.89
2019-05-15T08:57:38.131Z,1022.88
2019-05-15T08:58:35.327Z,1022.87
2019-05-15T08:59:35.316Z,1022.86
2019-05-15T09:00:35.324Z,1022.90
2019-05-15T09:01:35.286Z,1022.91
2019-05-15T09:02:35.274Z,1022.97
2019-05-15T09:03:35.261Z,1023.04
2019-05-15T09:04:35.405Z,1022.90
2019-05-15T09:05:35.242Z,1022.90
2019-05-15T09:06:35.223Z,1022.88
2019-05-15T09:07:35.215Z,1022.87
2019-05-15T09:08:35.199Z,1022.97
2019-05-15T09:09:35.186Z,1022.99
2019-05-15T09:10:35.176Z,1023.02
2019-05-15T09:11:35.178Z,1023.06
2019-05-15T09:12:35.148Z,1023.13
2019-05-15T09:13:35.141Z,1023.05
2019-05-15T09:14:35.127Z,1023.19
2019-05-15T09:15:35.113Z,1023.28
2019-05-15T09:16:35.105Z,1023.18
2019-05-15T09:17:35.091Z,1023.06
2019-05-15T09:18:35.077Z,1023.09
2019-05-15T09:19:35.059Z,1023.02
2019-05-15T09:20:35.048Z,1022.90
2019-05-15T09:21:35.031Z,1023.08
2019-05-15T09:22:35.020Z,1023.11
2019-05-15T09:23:35.010Z,1023.01
2019-05-15T09:24:35.014Z,1023.18
2019-05-15T09:25:34.985Z,1023.04
2019-05-15T09:26:35.530Z,1022.88
2019-05-15T09:27:34.961Z,1022.89
2019-05-15T09:28:34.952Z,1022.90
2019-05-15T09:29:34.940Z,1022.91
2019-05-15T09:30:34.925Z,1022.87
2019-05-15T09:31:34.913Z,1022.91
2019-05-15T09:32:34.905Z,1022.90
2019-05-15T09:33:34.897Z,1022.80
2019-05-15T09:34:47.860Z,1022.82
2019-05-15T09:35:34.871Z,1022.83
2019-05-15T09:36:34.867Z,1022.75
2019-05-15T09:37:34.860Z,1022.69
2019-05-15T09:38:34.835Z,1022.67
2019-05-15T09:39:34.827Z,1022.68
2019-05-15T09:40:45.164Z,1022.66
2019-05-15T09:41:34.805Z,1022.58
2019-05-15T09:42:34.793Z,1022.64
2019-05-15T09:43:34.787Z,1022.60
2019-05-15T09:44:34.773Z,1022.65
2019-05-15T09:45:34.761Z,1022.61
2019-05-15T09:46:34.758Z,1022.59
2019-05-15T09:47:34.748Z,1022.60
2019-05-15T09:48:34.736Z,1022.58
2019-05-15T09:49:34.723Z,1022.54
2019-05-15T09:50:34.711Z,1022.60
2019-05-15T09:51:34.701Z,1022.48
2019-05-15T09:52:34.688Z,1022.49
2019-05-15T09:53:34.675Z,1022.48
2019-05-15T09:54:34.666Z,1022.48
2019-05-15T09:55:34.656Z,1022.46
2019-05-15T09:56:34.651Z,1022.46
2019-05-15T09:57:34.651Z,1022.48
2019-05-15T09:58:34.625Z,1022.52
2019-05-15T09:59:34.615Z,1022.51
2019-05-15T10:00:34.609Z,1022.46
2019-05-15T10:01:34.645Z,1022.49
2019-05-15T10:02:34.584Z,1022.50
2019-05-15T10:03:34.573Z,1022.47
2019-05-15T10:04:34.573Z,1022.47
2019-05-15T10:05:34.551Z,1022.41
2019-05-15T10:06:34.539Z,1022.43
2019-05-15T10:07:34.533Z,1022.46
2019-05-15T10:08:34.520Z,1022.43
2019-05-15T10:09:34.507Z,1022.39
2019-05-15T10:10:34.497Z,1022.36
2019-05-15T10:11:34.491Z,1022.34
2019-05-15T10:12:35.361Z,1022.38
2019-05-15T10:13:34.467Z,1022.36
2019-05-15T10:14:34.459Z,1022.29
2019-05-15T10:15:34.449Z,1022.29
2019-05-15T10:16:34.445Z,1022.27
2019-05-15T10:17:34.429Z,1022.29
2019-05-15T10:18:34.415Z,1022.31
2019-05-15T10:19:34.410Z,1022.43
2019-05-15T10:20:34.397Z,1022.32
2019-05-15T10:21:34.387Z,1022.22
2019-05-15T10:22:34.383Z,1022.27
2019-05-15T10:23:34.388Z,1022.30
2019-05-15T10:24:34.356Z,1022.13
2019-05-15T10:25:34.351Z,1022.16
2019-05-15T10:26:34.339Z,1022.05
2019-05-15T10:27:34.326Z,1022.02
2019-05-15T10:28:34.323Z,1022.02
2019-05-15T10:29:34.308Z,1022.03
2019-05-15T10:30:34.292Z,1022.04
2019-05-15T10:31:34.286Z,1022.06
2019-05-15T10:32:34.285Z,1022.01
2019-05-15T10:33:34.268Z,1022.02
2019-05-15T10:34:34.258Z,1022.02
2019-05-15T10:35:34.250Z,1022.13
2019-05-15T10:36:34.239Z,1022.28
2019-05-15T10:37:34.230Z,1022.60
2019-05-15T10:38:34.220Z,1022.04
2019-05-15T10:39:34.206Z,1022.03
2019-05-15T10:40:34.199Z,1022.01
2019-05-15T10:41:34.187Z,1021.97
2019-05-15T10:42:34.182Z,1021.88
2019-05-15T10:43:34.172Z,1021.85
2019-05-15T10:44:34.160Z,1021.86
2019-05-15T10:45:34.152Z,1021.86
2019-05-15T10:46:34.140Z,1021.89
2019-05-15T10:47:34.128Z,1021.86
2019-05-15T10:48:34.119Z,1021.87
2019-05-15T10:49:34.109Z,1021.77
2019-05-15T10:50:34.100Z,1021.73
2019-05-15T10:51:34.093Z,1021.77
2019-05-15T10:52:34.080Z,1021.74
2019-05-15T10:53:34.068Z,1021.68
2019-05-15T10:54:34.061Z,1021.66
2019-05-15T10:55:34.060Z,1021.66
2019-05-15T10:56:34.040Z,1021.61
2019-05-15T10:57:34.039Z,1021.61
2019-05-15T10:58:34.018Z,1021.59
2019-05-15T10:59:34.012Z,1021.53
2019-05-15T11:00:33.999Z,1021.53
2019-05-15T11:01:33.988Z,1021.54
2019-05-15T11:02:33.981Z,1021.50
2019-05-15T11:03:35.076Z,1021.49
2019-05-15T11:04:33.958Z,1021.46
2019-05-15T11:05:44.633Z,1021.47
2019-05-15T11:06:33.942Z,1021.48
2019-05-15T11:07:33.926Z,1021.40
2019-05-15T11:08:33.916Z,1021.45
2019-05-15T11:09:33.907Z,1021.42
2019-05-15T11:10:33.898Z,1021.35
2019-05-15T11:11:33.894Z,1021.39
2019-05-15T11:12:33.878Z,1021.41
2019-05-15T11:13:33.870Z,1021.36
2019-05-15T11:14:33.857Z,1021.34
2019-05-15T11:15:33.845Z,1021.31
2019-05-15T11:16:33.852Z,1021.29
2019-05-15T11:17:33.823Z,1021.26
2019-05-15T11:18:33.814Z,1021.22
2019-05-15T11:19:36.364Z,1021.20
2019-05-15T11:20:33.797Z,1021.23
2019-05-15T11:21:33.780Z,1021.24
2019-05-15T11:22:33.787Z,1021.26
2019-05-15T11:23:33.759Z,1021.22
2019-05-15T11:24:33.764Z,1021.24
2019-05-15T11:25:33.738Z,1021.24
2019-05-15T11:26:33.763Z,1021.25
2019-05-15T11:27:33.714Z,1021.25
2019-05-15T11:28:33.711Z,1021.23
2019-05-15T11:29:33.692Z,1021.15
2019-05-15T11:30:33.684Z,1021.16
2019-05-15T11:31:33.671Z,1021.14
2019-05-15T11:32:33.665Z,1021.14
2019-05-15T11:33:33.656Z,1021.22
2019-05-15T11:34:33.643Z,1021.19
2019-05-15T11:35:33.633Z,1021.23
2019-05-15T11:36:33.620Z,1021.21
2019-05-15T11:37:33.674Z,1021.15
2019-05-15T11:38:33.593Z,1021.14
2019-05-15T11:39:33.589Z,1021.15
2019-05-15T11:40:33.573Z,1021.10
2019-05-15T11:41:33.566Z,1021.13
2019-05-15T11:42:33.548Z,1021.15
2019-05-15T11:43:33.539Z,1021.04
2019-05-15T11:44:33.529Z,1021.09
2019-05-15T11:45:33.514Z,1021.12
2019-05-15T11:46:33.507Z,1021.08
2019-05-15T11:47:33.494Z,1021.05
2019-05-15T11:48:33.483Z,1021.02
2019-05-15T11:49:33.472Z,1021.03
2019-05-15T11:50:33.467Z,1021.05
2019-05-15T11:51:33.453Z,1021.07
2019-05-15T11:52:36.394Z,1021.00
2019-05-15T11:53:33.430Z,1021.01
2019-05-15T11:54:33.421Z,1021.03
2019-05-15T11:55:33.406Z,1021.07
2019-05-15T11:56:33.604Z,1021.06
2019-05-15T11:57:42.619Z,1021.12
2019-05-15T11:58:33.374Z,1021.07
2019-05-15T11:59:33.568Z,1021.04
2019-05-15T12:00:33.347Z,1021.02
2019-05-15T12:01:33.337Z,1021.04
2019-05-15T12:02:33.373Z,1021.06
2019-05-15T12:03:33.314Z,1021.06
2019-05-15T12:04:34.334Z,1021.03
2019-05-15T12:05:33.294Z,1021.04